Marianne Danica — OWWO2 — position and weather

sailwx.info

Track history (hours):
 
Tides and Currents Weather Stations Pressure Air Temp Water Temp Dewpoint Dewpoint Depression Visibility Wind Speed Wind Dir Waves Ship Positions

Marianne Danica

Last reported at 2014-Jun-07 04:19 UTC. Time now 2014-Jul-25 20:39 UTC.
Position N 37°59' E 011°20'.
Warning: this ship's position is 48 days out of date.

Length 71 m; draft 3.8 m.

Type: Ship (hazmat cat A). MMSI: 219544000.

Date/timePositionNaut miles runAvg speedWind from/ knotsBaromVisibWave heightAir tempDewpointWater temp
2014-Jun-07 04:19N 37°59' E 011°20'10310.6
2014-Jun-06 18:33N 38°56' E 009°30'1010.2
2014-Jun-06 17:33N 39°02' E 009°20'1010.6
2014-Jun-06 16:33N 39°08' E 009°09'6 3.0
2014-Jun-06 14:28N 39°13' E 009°04'0 0.0
2014-Jun-06 12:08N 39°13' E 009°04'0 0.0
2014-Jun-06 10:32N 39°13' E 009°04'0 0.0
2014-Jun-06 09:19N 39°13' E 009°04'0 0.0
2014-Jun-06 08:25N 39°13' E 009°04'0 0.0
2014-Jun-06 07:28N 39°13' E 009°04'0 0.0
2014-Jun-06 06:33N 39°13' E 009°04'4 3.6
2014-Jun-06 05:32N 39°10' E 009°07'6 6.0
2014-Jun-06 04:33N 39°06' E 009°12'6 6.2
2014-Jun-06 03:33N 39°02' E 009°18'5 4.9
2014-Jun-06 02:33N 39°01' E 009°24'11 4.7
2014-Jun-06 00:11N 39°02' E 009°39'3 4.3
2014-Jun-05 23:33N 39°04' E 009°40'14 4.3
2014-Jun-05 20:18N 39°18' E 009°45'6 7.0
2014-Jun-05 19:30N 39°23' E 009°46'37 6.2
2014-Jun-05 13:33N 39°60' E 009°57'113 6.6
2014-Jun-04 20:20N 41°50' E 010°30'17 6.1
2014-Jun-04 17:33N 42°06' E 010°36'7 6.1
2014-Jun-04 16:25N 42°13' E 010°39'22 1.6
2014-Jun-04 02:24N 42°29' E 010°59'6 7.2
2014-Jun-04 01:32N 42°27' E 010°52'7 6.8
2014-Jun-04 00:33N 42°23' E 010°44'10 7.0
2014-Jun-03 23:11N 42°17' E 010°35'6 7.2
2014-Jun-03 22:24N 42°13' E 010°29'15 8.2
2014-Jun-03 20:33N 42°02' E 010°15'27510.6
2014-Jun-02 18:31N 39°49' E 004°57'7610.3
2014-Jun-02 11:10N 39°11' E 003°32'610.1
2014-Jun-02 10:33N 39°08' E 003°25'10 9.7
2014-Jun-02 09:33N 39°03' E 003°14'10 9.8
2014-Jun-02 08:34N 38°57' E 003°05'2010.0
2014-Jun-02 06:33N 38°44' E 002°45'1010.3
2014-Jun-02 05:34N 38°37' E 002°35'  
2014-May-30 04:32N 37°44' W 010°02'1211.1
2014-May-30 03:29N 37°55' W 010°06'1111.1
2014-May-30 02:30N 38°05' W 010°09'1211.2
2014-May-30 01:28N 38°17' W 010°13'  
Track history (hours):
 
Tides and Currents Weather Stations Pressure Air Temp Water Temp Dewpoint Dewpoint Depression Visibility Wind Speed Wind Dir Waves Ship Positions

Marianne Danica

Last reported at 2014-Jun-07 04:19 UTC. Time now 2014-Jul-25 20:39 UTC.
Position N 37°59' E 011°20'.
Warning: this ship's position is 48 days out of date.

Length 71 m; draft 3.8 m.

Type: Ship (hazmat cat A). MMSI: 219544000.

Date/timePositionNaut miles runAvg speedWind from/ knotsBaromVisibWave heightAir tempDewpointWater temp
2014-Jun-07 04:19N 37°59' E 011°20'10310.6
2014-Jun-06 18:33N 38°56' E 009°30'1010.2
2014-Jun-06 17:33N 39°02' E 009°20'1010.6
2014-Jun-06 16:33N 39°08' E 009°09'6 3.0
2014-Jun-06 14:28N 39°13' E 009°04'0 0.0
2014-Jun-06 12:08N 39°13' E 009°04'0 0.0
2014-Jun-06 10:32N 39°13' E 009°04'0 0.0
2014-Jun-06 09:19N 39°13' E 009°04'0 0.0
2014-Jun-06 08:25N 39°13' E 009°04'0 0.0
2014-Jun-06 07:28N 39°13' E 009°04'0 0.0
2014-Jun-06 06:33N 39°13' E 009°04'4 3.6
2014-Jun-06 05:32N 39°10' E 009°07'6 6.0
2014-Jun-06 04:33N 39°06' E 009°12'6 6.2
2014-Jun-06 03:33N 39°02' E 009°18'5 4.9
2014-Jun-06 02:33N 39°01' E 009°24'11 4.7
2014-Jun-06 00:11N 39°02' E 009°39'3 4.3
2014-Jun-05 23:33N 39°04' E 009°40'14 4.3
2014-Jun-05 20:18N 39°18' E 009°45'6 7.0
2014-Jun-05 19:30N 39°23' E 009°46'37 6.2
2014-Jun-05 13:33N 39°60' E 009°57'113 6.6
2014-Jun-04 20:20N 41°50' E 010°30'17 6.1
2014-Jun-04 17:33N 42°06' E 010°36'7 6.1
2014-Jun-04 16:25N 42°13' E 010°39'22 1.6
2014-Jun-04 02:24N 42°29' E 010°59'6 7.2
2014-Jun-04 01:32N 42°27' E 010°52'7 6.8
2014-Jun-04 00:33N 42°23' E 010°44'10 7.0
2014-Jun-03 23:11N 42°17' E 010°35'6 7.2
2014-Jun-03 22:24N 42°13' E 010°29'15 8.2
2014-Jun-03 20:33N 42°02' E 010°15'27510.6
2014-Jun-02 18:31N 39°49' E 004°57'7610.3
2014-Jun-02 11:10N 39°11' E 003°32'610.1
2014-Jun-02 10:33N 39°08' E 003°25'10 9.7
2014-Jun-02 09:33N 39°03' E 003°14'10 9.8
2014-Jun-02 08:34N 38°57' E 003°05'2010.0
2014-Jun-02 06:33N 38°44' E 002°45'1010.3
2014-Jun-02 05:34N 38°37' E 002°35'  
2014-May-30 04:32N 37°44' W 010°02'1211.1
2014-May-30 03:29N 37°55' W 010°06'1111.1
2014-May-30 02:30N 38°05' W 010°09'1211.2
2014-May-30 01:28N 38°17' W 010°13'  

Dump ship's entire track history